Time;durP1;ratioP1;P1;durP2;ratioP2;P2;SDS_P1;SDS_P2;PMS_P1;PMS_P2;Temp;Humidity;BMP_temperature;BMP_pressure;BME280_temperature;BME280_humidity;BME280_pressure;Samples;Min_cycle;Max_cycle;Signal;HPM_P1;HPM_P2
2022/06/21 00:02:12;;;;;;;3.25;2.60;;;22.60;54.50;;;;;;5029770;28;20041;-58
2022/06/21 00:04:38;;;;;;;3.05;2.50;;;22.60;54.60;;;;;;5018990;28;20080;-59
2022/06/21 00:07:05;;;;;;;3.53;2.90;;;22.50;54.60;;;;;;5035108;28;20018;-59
2022/06/21 00:09:31;;;;;;;4.22;2.75;;;22.50;54.70;;;;;;5034907;28;20025;-59
2022/06/21 00:11:56;;;;;;;3.20;2.63;;;22.50;54.80;;;;;;5033673;28;20370;-58
2022/06/21 00:14:22;;;;;;;4.75;3.03;;;22.50;54.80;;;;;;5034913;28;20076;-58
2022/06/21 00:16:48;;;;;;;2.70;2.47;;;22.40;55.00;;;;;;5025769;28;20057;-59
2022/06/21 00:19:21;;;;;;;2.65;2.42;;;22.40;55.00;;;;;;5035461;28;20033;-58
2022/06/21 00:21:47;;;;;;;3.17;2.60;;;22.40;55.10;;;;;;5036570;28;20021;-58
2022/06/21 00:24:16;;;;;;;3.00;2.67;;;22.40;55.20;;;;;;5028670;28;20071;-58
2022/06/21 00:26:43;;;;;;;3.95;2.80;;;22.30;55.30;;;;;;5045820;28;20033;-59
2022/06/21 00:29:09;;;;;;;2.70;2.50;;;22.30;55.40;;;;;;5034697;28;20013;-58
2022/06/21 00:31:37;;;;;;;3.22;2.60;;;22.40;55.40;;;;;;5029598;28;20036;-59
2022/06/21 00:34:16;;;;;;;2.60;2.40;;;22.30;55.50;;;;;;5026792;28;20026;-59
2022/06/21 00:36:42;;;;;;;2.80;2.50;;;22.30;55.50;;;;;;5033900;28;20116;-59
2022/06/21 00:39:13;;;;;;;2.58;2.38;;;22.30;55.50;;;;;;5043814;28;20031;-58
2022/06/21 00:41:47;;;;;;;2.90;2.60;;;22.30;55.60;;;;;;5021453;28;20698;-58
2022/06/21 00:44:22;;;;;;;2.88;2.50;;;22.30;55.70;;;;;;5047698;28;20094;-58
2022/06/21 00:47:02;;;;;;;3.00;2.60;;;22.30;55.80;;;;;;5028720;28;20030;-59
2022/06/21 00:49:34;;;;;;;3.05;2.45;;;22.20;55.90;;;;;;5034268;28;20041;-58
2022/06/21 00:52:14;;;;;;;2.78;2.53;;;22.20;56.00;;;;;;5034438;28;20025;-58
2022/06/21 00:55:12;;;;;;;2.63;2.42;;;22.20;56.00;;;;;;5027379;28;20045;-58
2022/06/21 00:57:50;;;;;;;3.70;2.53;;;22.20;56.00;;;;;;5032607;28;20068;-58
2022/06/21 01:00:31;;;;;;;2.72;2.50;;;22.20;56.00;;;;;;5033860;28;20021;-58
2022/06/21 01:03:00;;;;;;;2.92;2.65;;;22.20;56.10;;;;;;5032471;28;20036;-58
2022/06/21 01:05:33;;;;;;;2.60;2.33;;;22.20;56.20;;;;;;5033392;28;20037;-58
2022/06/21 01:07:58;;;;;;;2.80;2.50;;;22.10;56.30;;;;;;5044296;28;20359;-58
2022/06/21 01:10:27;;;;;;;2.70;2.50;;;22.10;56.50;;;;;;5033953;28;20163;-57
2022/06/21 01:12:58;;;;;;;3.00;2.70;;;22.10;56.50;;;;;;5034029;28;20056;-58
2022/06/21 01:15:30;;;;;;;2.33;2.22;;;22.10;56.60;;;;;;5031254;28;20037;-58
2022/06/21 01:18:00;;;;;;;2.95;2.72;;;22.10;56.60;;;;;;5020926;28;20038;-58
2022/06/21 01:20:30;;;;;;;3.40;2.70;;;22.10;56.70;;;;;;5041348;28;20018;-58
2022/06/21 01:23:03;;;;;;;3.17;2.70;;;22.10;56.70;;;;;;5032541;28;20033;-59
2022/06/21 01:25:55;;;;;;;3.50;2.85;;;22.10;57.00;;;;;;5025662;28;20037;-59
2022/06/21 01:28:21;;;;;;;3.40;2.47;;;22.00;56.80;;;;;;5032969;28;20532;-58
2022/06/21 01:30:50;;;;;;;2.78;2.30;;;22.00;56.90;;;;;;5031190;28;20029;-58
2022/06/21 01:33:18;;;;;;;3.72;2.67;;;22.10;57.00;;;;;;5022619;28;20033;-59
2022/06/21 01:35:51;;;;;;;3.55;2.75;;;22.00;57.00;;;;;;5033126;28;20045;-58
2022/06/21 01:38:32;;;;;;;3.63;2.80;;;22.00;57.00;;;;;;5022269;28;20040;-58
2022/06/21 01:41:08;;;;;;;2.45;2.25;;;22.00;57.00;;;;;;5038473;28;20099;-59
2022/06/21 01:43:38;;;;;;;3.33;2.90;;;22.00;56.90;;;;;;5032361;28;20029;-59
2022/06/21 01:46:12;;;;;;;3.88;2.90;;;22.00;57.00;;;;;;5027143;28;20030;-58
2022/06/21 01:48:45;;;;;;;2.92;2.63;;;22.00;57.10;;;;;;5033212;28;20030;-58
2022/06/21 01:51:22;;;;;;;2.88;2.50;;;22.00;57.20;;;;;;5033400;28;20109;-58
2022/06/21 01:53:48;;;;;;;2.78;2.58;;;22.00;57.20;;;;;;5032966;28;20492;-58
2022/06/21 01:56:21;;;;;;;3.17;2.72;;;22.00;57.30;;;;;;5023555;28;20110;-59
2022/06/21 01:58:52;;;;;;;3.03;2.80;;;22.00;57.30;;;;;;5025820;28;20033;-58
2022/06/21 02:01:33;;;;;;;3.78;2.80;;;22.00;57.20;;;;;;5030652;28;20072;-59
2022/06/21 02:04:02;;;;;;;3.25;2.95;;;22.00;57.20;;;;;;5044066;28;20461;-58
2022/06/21 02:06:31;;;;;;;3.67;2.92;;;22.00;57.20;;;;;;5034277;28;20370;-59
2022/06/21 02:09:03;;;;;;;2.83;2.53;;;22.00;57.10;;;;;;5033392;28;20075;-58
2022/06/21 02:11:35;;;;;;;2.80;2.50;;;22.00;57.20;;;;;;5032697;28;20025;-58
2022/06/21 02:16:51;;;;;;;2.80;2.53;;;22.00;57.30;;;;;;5016682;28;20185;-59
2022/06/21 02:19:30;;;;;;;3.13;2.83;;;22.00;57.40;;;;;;5033473;28;20044;-58
2022/06/21 02:21:56;;;;;;;3.83;2.80;;;22.00;57.30;;;;;;5032720;28;20032;-58
2022/06/21 02:24:25;;;;;;;2.88;2.60;;;22.00;57.30;;;;;;5032020;28;20655;-58
2022/06/21 02:26:51;;;;;;;2.72;2.50;;;22.00;57.30;;;;;;5031643;28;20033;-58
2022/06/21 02:29:17;;;;;;;2.88;2.60;;;22.00;57.30;;;;;;5015180;28;20053;-58
2022/06/21 02:31:46;;;;;;;3.47;3.08;;;22.00;57.20;;;;;;5022704;28;20076;-59
2022/06/21 02:34:22;;;;;;;2.83;2.53;;;22.10;57.30;;;;;;5022577;28;20072;-58
2022/06/21 02:36:52;;;;;;;2.90;2.70;;;22.00;57.20;;;;;;5034788;28;20045;-58
2022/06/21 02:39:21;;;;;;;3.00;2.70;;;22.10;57.30;;;;;;5040591;28;20026;-58
2022/06/21 02:41:52;;;;;;;2.70;2.50;;;22.10;57.30;;;;;;5036731;28;20032;-59
2022/06/21 02:44:28;;;;;;;4.72;2.83;;;22.10;57.20;;;;;;5032391;28;20036;-59
2022/06/21 02:46:59;;;;;;;3.15;2.53;;;22.20;57.20;;;;;;5030084;28;20026;-58
2022/06/21 02:49:45;;;;;;;2.50;2.30;;;22.20;57.10;;;;;;5036734;28;20017;-58
2022/06/21 02:52:37;;;;;;;2.72;2.50;;;22.20;57.10;;;;;;5033393;28;20474;-58
2022/06/21 02:55:14;;;;;;;;;;;22.20;57.10;;;;;;5045397;28;20026;-58
2022/06/21 02:58:00;;;;;;;2.83;2.50;;;22.20;57.00;;;;;;5036824;28;19938;-59
2022/06/21 03:00:26;;;;;;;3.55;2.65;;;22.20;57.00;;;;;;5025910;28;20026;-59
2022/06/21 03:02:52;;;;;;;3.28;2.80;;;22.30;57.10;;;;;;5029828;28;20394;-58
2022/06/21 03:05:21;;;;;;;2.83;2.63;;;22.30;57.00;;;;;;5025286;28;20022;-58
2022/06/21 03:07:54;;;;;;;3.90;2.70;;;22.30;57.20;;;;;;5030657;28;20030;-58
2022/06/21 03:10:24;;;;;;;2.88;2.58;;;22.40;57.20;;;;;;5036399;28;20045;-58
2022/06/21 03:13:00;;;;;;;4.33;2.70;;;22.50;57.20;;;;;;5036593;28;20025;-58
2022/06/21 03:15:26;;;;;;;3.90;2.70;;;22.50;57.20;;;;;;5027187;28;20060;-58
2022/06/21 03:17:53;;;;;;;2.70;2.50;;;22.60;57.20;;;;;;5047143;28;20441;-57
2022/06/21 03:20:20;;;;;;;2.75;2.45;;;22.60;57.10;;;;;;5050979;28;20021;-59
2022/06/21 03:22:47;;;;;;;2.85;2.60;;;22.70;57.10;;;;;;5035744;28;20026;-59
2022/06/21 03:25:25;;;;;;;3.17;2.92;;;22.80;57.20;;;;;;5025432;28;20028;-59
2022/06/21 03:27:56;;;;;;;3.55;2.67;;;22.90;57.00;;;;;;5035924;28;20448;-58
2022/06/21 03:30:29;;;;;;;3.70;2.72;;;22.90;56.90;;;;;;5016744;28;20033;-58
2022/06/21 03:32:56;;;;;;;2.75;2.55;;;23.00;56.80;;;;;;5016714;28;20092;-58
2022/06/21 03:35:25;;;;;;;3.97;2.50;;;23.20;56.90;;;;;;5035390;28;20022;-58
2022/06/21 03:37:50;;;;;;;3.28;2.58;;;23.40;57.40;;;;;;5035624;28;20025;-57
2022/06/21 03:43:11;;;;;;;2.60;2.22;;;24.40;57.30;;;;;;5031594;28;20084;-58
2022/06/21 03:45:41;;;;;;;2.47;2.13;;;25.20;56.60;;;;;;5022543;28;20014;-59
2022/06/21 03:48:17;;;;;;;2.10;1.90;;;25.90;55.80;;;;;;5031833;28;20049;-59
2022/06/21 03:51:34;;;;;;;2.15;2.00;;;26.90;54.90;;;;;;5034355;28;20033;-58
2022/06/21 03:54:07;;;;;;;2.10;1.90;;;28.00;53.80;;;;;;5026195;28;20183;-58
2022/06/21 03:56:53;;;;;;;2.00;1.75;;;29.30;52.40;;;;;;5034162;28;20083;-58
2022/06/21 03:59:24;;;;;;;1.52;1.42;;;30.30;51.00;;;;;;5023438;28;20034;-59
2022/06/21 04:01:57;;;;;;;1.77;1.67;;;31.20;49.90;;;;;;5035068;28;20037;-57
2022/06/21 04:04:48;;;;;;;2.03;1.77;;;32.20;49.10;;;;;;5035008;28;20056;-59
2022/06/21 04:07:19;;;;;;;2.25;2.00;;;33.00;48.00;;;;;;5034606;28;20060;-59
2022/06/21 04:09:59;;;;;;;2.00;1.90;;;33.80;46.90;;;;;;5034625;28;20014;-59
2022/06/21 04:12:30;;;;;;;2.78;1.83;;;34.50;45.70;;;;;;5020881;28;20072;-59
2022/06/21 04:15:24;;;;;;;1.75;1.65;;;35.10;45.20;;;;;;5021732;28;20037;-59
2022/06/21 04:18:23;;;;;;;1.58;1.48;;;35.80;44.20;;;;;;5034473;28;20424;-59
2022/06/21 04:21:07;;;;;;;1.67;1.52;;;36.50;43.10;;;;;;5031809;28;20540;-59
2022/06/21 04:23:51;;;;;;;2.20;2.00;;;37.00;43.10;;;;;;5034070;28;20025;-59
2022/06/21 04:26:24;;;;;;;2.35;1.85;;;37.50;42.30;;;;;;5029909;28;20049;-59
2022/06/21 04:29:13;;;;;;;1.70;1.55;;;38.00;41.80;;;;;;5024503;28;20437;-59
2022/06/21 04:31:47;;;;;;;1.52;1.30;;;38.50;40.90;;;;;;5027502;28;20108;-57
2022/06/21 04:34:24;;;;;;;1.67;1.58;;;38.80;41.00;;;;;;5035960;28;20084;-57
2022/06/21 04:37:00;;;;;;;1.85;1.75;;;39.20;40.70;;;;;;5031160;28;20026;-57
2022/06/21 04:39:52;;;;;;;3.08;1.70;;;39.50;39.80;;;;;;5035326;28;20029;-57
2022/06/21 04:42:30;;;;;;;1.75;1.65;;;39.80;39.60;;;;;;5030589;28;20033;-58
2022/06/21 04:45:12;;;;;;;2.33;1.95;;;40.00;39.10;;;;;;5029537;28;20466;-58
2022/06/21 04:48:05;;;;;;;1.63;1.50;;;40.40;38.90;;;;;;5037647;28;20124;-59
2022/06/21 04:50:39;;;;;;;1.65;1.55;;;40.70;38.20;;;;;;5020479;28;20029;-60
2022/06/21 04:53:31;;;;;;;1.73;1.63;;;40.90;38.10;;;;;;5024025;28;20041;-58
2022/06/21 04:56:04;;;;;;;1.75;1.60;;;41.20;37.60;;;;;;5037743;28;20055;-58
2022/06/21 04:58:30;;;;;;;1.80;1.63;;;41.40;37.60;;;;;;5012783;28;20028;-58
2022/06/21 05:00:57;;;;;;;1.55;1.23;;;41.70;37.40;;;;;;5032399;28;20108;-58
2022/06/21 05:03:41;;;;;;;1.95;1.85;;;42.00;37.10;;;;;;5028707;28;20072;-58
2022/06/21 05:06:09;;;;;;;1.70;1.60;;;42.20;36.70;;;;;;5022329;28;20084;-58
2022/06/21 05:08:34;;;;;;;1.92;1.75;;;42.30;36.50;;;;;;5039855;28;20032;-58
2022/06/21 05:11:02;;;;;;;1.90;1.80;;;42.50;36.20;;;;;;5030647;28;20741;-58
2022/06/21 05:13:30;;;;;;;2.28;2.00;;;42.70;36.00;;;;;;5034075;28;20025;-58
2022/06/21 05:16:01;;;;;;;2.10;1.90;;;42.70;35.80;;;;;;5039930;28;20021;-57
2022/06/21 05:18:29;;;;;;;2.15;1.50;;;42.80;35.40;;;;;;5031652;28;20017;-57
2022/06/21 05:21:01;;;;;;;2.20;1.70;;;42.80;35.00;;;;;;5030553;28;20029;-58
2022/06/21 05:23:28;;;;;;;4.55;2.03;;;42.80;34.60;;;;;;5030064;28;20063;-58
2022/06/21 05:25:55;;;;;;;2.63;2.25;;;42.40;34.30;;;;;;5024667;28;20029;-57
2022/06/21 05:28:25;;;;;;;2.25;2.05;;;41.90;34.30;;;;;;5014223;28;20026;-57
2022/06/21 05:30:59;;;;;;;2.05;1.90;;;41.20;34.40;;;;;;5027633;28;20033;-57
2022/06/21 05:33:31;;;;;;;2.15;1.88;;;40.30;34.50;;;;;;5023695;28;20579;-58
2022/06/21 05:35:57;;;;;;;2.85;2.30;;;39.50;34.90;;;;;;5025974;28;20033;-58
2022/06/21 05:38:27;;;;;;;2.20;2.00;;;38.70;35.30;;;;;;5038901;28;20515;-58
2022/06/21 05:41:04;;;;;;;2.92;2.28;;;37.90;35.50;;;;;;5034458;28;20025;-58
2022/06/21 05:43:33;;;;;;;2.08;1.73;;;37.20;36.00;;;;;;5028422;28;20509;-58
2022/06/21 05:46:01;;;;;;;1.90;1.80;;;36.50;36.40;;;;;;5030486;28;20061;-58
2022/06/21 05:48:31;;;;;;;2.50;2.30;;;35.90;36.90;;;;;;5025624;28;20048;-58
2022/06/21 05:51:00;;;;;;;2.38;2.17;;;35.30;37.40;;;;;;5008029;28;20036;-58
2022/06/21 05:53:43;;;;;;;2.90;2.08;;;34.90;37.80;;;;;;5009325;28;21967;-58
2022/06/21 05:56:13;;;;;;;2.22;2.03;;;34.50;38.20;;;;;;5012039;28;20029;-58
2022/06/21 05:58:44;;;;;;;1.75;1.65;;;34.10;38.50;;;;;;5015812;28;20068;-58
2022/06/21 06:01:24;;;;;;;4.45;2.05;;;33.70;38.80;;;;;;5010256;28;20045;-57
2022/06/21 06:04:00;;;;;;;2.80;2.30;;;33.40;39.40;;;;;;5012722;28;20029;-57
2022/06/21 06:06:29;;;;;;;1.90;1.80;;;33.20;39.60;;;;;;5022201;28;20030;-57
2022/06/21 06:09:00;;;;;;;2.07;1.67;;;33.00;39.60;;;;;;5016439;28;20030;-57
2022/06/21 06:14:21;;;;;;;1.95;1.77;;;32.60;40.00;;;;;;5017255;28;20049;-57
2022/06/21 06:16:51;;;;;;;3.15;1.77;;;32.40;40.20;;;;;;5012033;28;20548;-57
2022/06/21 06:19:52;;;;;;;2.42;1.95;;;32.30;40.20;;;;;;5007486;28;20043;-57
2022/06/21 06:22:27;;;;;;;1.83;1.73;;;32.10;40.30;;;;;;5018561;28;20052;-57
2022/06/21 06:25:16;;;;;;;2.30;2.10;;;32.00;40.40;;;;;;5001039;28;20408;-58
2022/06/21 06:27:57;;;;;;;2.63;1.75;;;31.80;40.50;;;;;;5005330;28;20025;-58
2022/06/21 06:30:31;;;;;;;1.52;1.42;;;31.70;40.40;;;;;;5001052;28;20060;-57
2022/06/21 06:33:18;;;;;;;1.75;1.65;;;31.60;40.60;;;;;;5009993;28;20079;-57
2022/06/21 06:35:47;;;;;;;2.10;1.90;;;31.50;40.50;;;;;;5012161;28;20037;-57
2022/06/21 06:38:15;;;;;;;2.38;1.63;;;31.40;40.70;;;;;;5008945;28;20036;-57
2022/06/21 06:40:46;;;;;;;1.75;1.65;;;31.30;40.60;;;;;;5007944;28;20488;-57
2022/06/21 06:43:32;;;;;;;2.03;1.88;;;31.30;40.80;;;;;;5003233;28;20045;-58
2022/06/21 06:45:58;;;;;;;3.75;2.20;;;31.20;40.70;;;;;;4993703;28;20497;-57
2022/06/21 06:48:30;;;;;;;2.42;1.98;;;31.20;40.90;;;;;;5009733;28;20069;-58
2022/06/21 06:51:26;;;;;;;1.92;1.73;;;31.20;40.80;;;;;;5010139;28;20077;-57
2022/06/21 06:53:55;;;;;;;2.13;1.95;;;31.20;40.80;;;;;;5011747;28;20064;-60
2022/06/21 06:56:28;;;;;;;1.63;1.52;;;31.20;40.80;;;;;;4998826;28;20108;-57
2022/06/21 06:59:09;;;;;;;1.90;1.80;;;31.10;40.90;;;;;;5000849;28;20044;-57
2022/06/21 07:01:50;;;;;;;2.28;1.75;;;31.10;40.70;;;;;;5009747;28;20414;-58
2022/06/21 07:04:18;;;;;;;1.80;1.63;;;31.10;40.90;;;;;;5002947;28;20552;-58
2022/06/21 07:06:50;;;;;;;1.98;1.88;;;31.10;41.00;;;;;;5000249;28;20028;-57
2022/06/21 07:09:29;;;;;;;1.77;1.67;;;31.00;40.90;;;;;;4994610;28;20033;-57
2022/06/21 07:12:24;;;;;;;1.77;1.67;;;31.00;40.90;;;;;;4992411;28;20030;-58
2022/06/21 07:14:51;;;;;;;1.88;1.60;;;31.10;41.10;;;;;;5010886;28;20101;-58
2022/06/21 07:17:27;;;;;;;1.50;1.40;;;31.00;41.00;;;;;;5000847;28;20051;-58
2022/06/21 07:19:55;;;;;;;2.03;1.80;;;31.00;41.30;;;;;;5011626;28;20021;-57
2022/06/21 07:22:24;;;;;;;2.58;1.80;;;31.00;41.20;;;;;;5004294;28;20021;-57
2022/06/21 07:25:17;;;;;;;1.60;1.48;;;31.00;41.10;;;;;;4993286;28;20117;-57
2022/06/21 07:27:47;;;;;;;1.60;1.50;;;31.00;41.20;;;;;;5002786;28;20018;-56
2022/06/21 07:30:16;;;;;;;3.70;1.77;;;31.00;41.30;;;;;;4997923;28;20034;-57
2022/06/21 07:32:57;;;;;;;2.53;1.48;;;31.00;41.00;;;;;;5001642;28;20037;-57
2022/06/21 07:35:32;;;;;;;1.60;1.50;;;31.00;40.80;;;;;;4989723;28;21280;-57
2022/06/21 07:38:09;;;;;;;1.60;1.50;;;31.00;40.90;;;;;;5006906;28;20037;-57
2022/06/21 07:40:44;;;;;;;1.60;1.50;;;31.00;40.80;;;;;;5012466;28;20091;-56
2022/06/21 07:43:16;;;;;;;4.55;1.80;;;31.10;40.90;;;;;;5009071;28;20045;-56
2022/06/21 07:46:09;;;;;;;3.15;1.85;;;31.10;40.90;;;;;;5001138;28;20021;-57
2022/06/21 07:48:45;;;;;;;1.70;1.60;;;31.10;40.90;;;;;;4999546;28;20041;-57
2022/06/21 07:51:17;;;;;;;2.83;1.60;;;31.10;41.00;;;;;;4998475;28;20048;-57
2022/06/21 07:53:45;;;;;;;1.63;1.25;;;31.10;41.10;;;;;;5011096;28;20557;-57
2022/06/21 07:56:16;;;;;;;2.70;1.50;;;31.10;41.10;;;;;;5003770;28;20034;-57
2022/06/21 07:59:09;;;;;;;1.77;1.30;;;31.10;41.10;;;;;;5000754;28;20043;-57
2022/06/21 08:07:30;;;;;;;1.60;1.50;;;31.10;40.20;;;;;;5006600;28;20033;-57
2022/06/21 08:10:14;;;;;;;1.40;1.30;;;31.10;40.20;;;;;;5010083;28;20472;-57
2022/06/21 08:12:41;;;;;;;1.40;1.30;;;31.10;40.10;;;;;;5001205;28;20116;-56
2022/06/21 08:15:07;;;;;;;1.77;1.67;;;31.00;39.80;;;;;;4999793;28;20128;-57
2022/06/21 08:17:44;;;;;;;2.15;1.15;;;31.00;39.90;;;;;;4997685;28;22427;-57
2022/06/21 08:20:48;;;;;;;1.13;1.13;;;31.00;39.70;;;;;;5006707;28;20036;-57
2022/06/21 08:23:21;;;;;;;2.10;1.67;;;31.00;39.50;;;;;;5001282;28;20054;-57
2022/06/21 08:25:53;;;;;;;1.77;1.40;;;31.00;39.70;;;;;;5003734;28;20029;-57
2022/06/21 08:28:26;;;;;;;1.88;1.33;;;31.00;39.80;;;;;;4996702;28;20117;-57
2022/06/21 08:31:02;;;;;;;1.92;1.48;;;31.00;40.00;;;;;;5002032;28;20033;-57
2022/06/21 08:33:34;;;;;;;2.25;1.58;;;31.00;40.00;;;;;;5004697;28;20458;-57
2022/06/21 08:36:08;;;;;;;1.73;1.63;;;31.00;40.10;;;;;;5002503;28;20057;-57
2022/06/21 08:38:42;;;;;;;1.60;1.50;;;31.00;40.10;;;;;;5002625;28;20040;-56
2022/06/21 08:44:16;;;;;;;1.48;1.27;;;30.90;40.20;;;;;;5015402;28;20072;-56
2022/06/21 08:47:10;;;;;;;1.66;1.56;;;30.90;40.30;;;;;;4889328;28;3489244;-56
2022/06/21 08:49:45;;;;;;;2.03;1.80;;;30.90;40.20;;;;;;5009280;28;20175;-56
2022/06/21 08:52:17;;;;;;;2.13;1.92;;;30.80;40.10;;;;;;5002650;28;20391;-57
2022/06/21 08:55:09;;;;;;;4.00;1.55;;;30.80;40.00;;;;;;5006171;28;20405;-56
2022/06/21 08:57:59;;;;;;;1.50;1.40;;;30.80;39.70;;;;;;5000213;28;20025;-57
2022/06/21 09:00:33;;;;;;;;;;;30.80;39.80;;;;;;4996782;28;21614;-58
2022/06/21 09:03:29;;;;;;;2.22;1.70;;;30.80;39.80;;;;;;4999324;28;19921;-58
2022/06/21 09:06:22;;;;;;;1.80;1.70;;;30.70;39.90;;;;;;4998315;28;20025;-57
2022/06/21 09:09:10;;;;;;;2.55;1.75;;;30.70;39.90;;;;;;5008197;28;20081;-58
2022/06/21 09:12:08;;;;;;;1.83;1.20;;;30.70;40.40;;;;;;5004915;28;20054;-58
2022/06/21 09:14:47;;;;;;;1.50;1.40;;;30.60;39.70;;;;;;5000711;28;20145;-58
2022/06/21 09:17:26;;;;;;;1.58;1.40;;;30.60;39.50;;;;;;5003739;28;20044;-58
2022/06/21 09:19:57;;;;;;;1.63;1.52;;;30.60;39.70;;;;;;4991910;28;20080;-58
2022/06/21 09:22:29;;;;;;;2.25;1.40;;;30.60;39.70;;;;;;4992794;28;20040;-58
2022/06/21 09:25:10;;;;;;;1.77;1.67;;;30.60;39.70;;;;;;4997845;28;20025;-58
2022/06/21 09:27:43;;;;;;;1.73;1.60;;;30.50;39.70;;;;;;5001972;28;20032;-58
2022/06/21 09:30:14;;;;;;;2.60;1.67;;;30.50;39.80;;;;;;4987905;28;20037;-57
2022/06/21 09:33:10;;;;;;;1.58;1.48;;;30.50;39.70;;;;;;4993968;28;20120;-58
2022/06/21 09:35:46;;;;;;;1.30;1.20;;;30.40;39.70;;;;;;4993780;28;20524;-58
2022/06/21 09:38:19;;;;;;;1.65;1.52;;;30.40;39.40;;;;;;4990497;28;20404;-58
2022/06/21 09:40:57;;;;;;;1.50;1.35;;;30.40;39.30;;;;;;4984853;28;20493;-58
2022/06/21 09:43:40;;;;;;;1.50;1.40;;;30.40;39.20;;;;;;4998856;28;20037;-58
2022/06/21 09:46:20;;;;;;;1.33;1.23;;;30.40;39.30;;;;;;4983638;28;20105;-58
2022/06/21 09:48:55;;;;;;;1.67;1.42;;;30.30;39.30;;;;;;4971481;28;20156;-58
2022/06/21 09:51:39;;;;;;;2.20;1.50;;;30.30;39.30;;;;;;4980907;28;20040;-57
2022/06/21 09:54:38;;;;;;;1.92;1.38;;;30.30;39.00;;;;;;4980476;28;20056;-58
2022/06/21 09:57:22;;;;;;;1.83;1.38;;;30.30;38.60;;;;;;4992852;28;20038;-58
2022/06/21 10:00:00;;;;;;;1.40;1.30;;;30.30;38.70;;;;;;4996378;28;20035;-58
2022/06/21 10:02:38;;;;;;;1.27;1.05;;;30.30;38.80;;;;;;4995821;28;20037;-58
2022/06/21 10:05:16;;;;;;;1.33;1.25;;;30.20;38.70;;;;;;4994422;28;20039;-58
2022/06/21 10:08:09;;;;;;;2.10;1.27;;;30.20;38.50;;;;;;4988717;28;20447;-58
2022/06/21 10:11:00;;;;;;;1.10;0.98;;;30.20;38.50;;;;;;4990726;28;20029;-59
2022/06/21 10:14:23;;;;;;;1.38;1.27;;;30.20;38.60;;;;;;4991780;28;20167;-58
2022/06/21 10:17:03;;;;;;;1.33;1.23;;;30.10;38.60;;;;;;4999895;28;20039;-58
2022/06/21 10:19:47;;;;;;;1.38;1.27;;;30.10;38.60;;;;;;5003892;28;20037;-58
2022/06/21 10:22:16;;;;;;;1.65;1.55;;;30.10;38.60;;;;;;4999369;28;20096;-58
2022/06/21 10:24:57;;;;;;;1.45;1.20;;;30.10;38.40;;;;;;4999471;28;20490;-58
2022/06/21 10:27:47;;;;;;;1.67;1.40;;;30.10;38.40;;;;;;4993638;28;20041;-58
2022/06/21 10:30:39;;;;;;;2.22;1.70;;;30.10;38.50;;;;;;4992698;28;20401;-58
2022/06/21 10:33:44;;;;;;;1.02;1.02;;;30.10;38.60;;;;;;4992853;28;20044;-57
2022/06/21 10:36:27;;;;;;;1.58;1.48;;;30.10;38.70;;;;;;4999652;28;20460;-58
2022/06/21 10:39:07;;;;;;;1.63;1.52;;;30.10;38.60;;;;;;4999747;28;20036;-58
2022/06/21 10:45:05;;;;;;;1.40;1.30;;;30.00;38.60;;;;;;4998569;28;20112;-57
2022/06/21 10:47:46;;;;;;;1.35;1.25;;;30.10;39.20;;;;;;5004263;28;20081;-58
2022/06/21 10:50:24;;;;;;;1.70;1.60;;;30.00;38.70;;;;;;4999922;28;20175;-56
2022/06/21 10:53:07;;;;;;;1.63;1.40;;;30.10;38.80;;;;;;5002527;28;20029;-57
2022/06/21 10:55:48;;;;;;;1.52;1.40;;;30.10;38.70;;;;;;5000894;28;20106;-58
2022/06/21 10:58:22;;;;;;;;;;;30.10;38.60;;;;;;5002257;28;20051;-58
2022/06/21 11:01:18;;;;;;;1.95;1.40;;;30.00;38.60;;;;;;5004246;28;19925;-58
2022/06/21 11:04:05;;;;;;;1.38;1.27;;;30.10;38.80;;;;;;5002430;28;20057;-58
2022/06/21 11:06:36;;;;;;;2.08;1.45;;;30.10;38.90;;;;;;5012717;28;20445;-59
2022/06/21 11:09:28;;;;;;;1.50;1.25;;;30.10;38.90;;;;;;5009133;28;20024;-58
2022/06/21 11:12:52;;;;;;;1.50;1.40;;;30.10;39.00;;;;;;5006035;28;20809;-58
2022/06/21 11:14:51;;;;;;;2.92;1.60;;;30.10;38.90;;;;;;5008385;28;20034;-58
2022/06/21 11:17:37;;;;;;;1.55;1.38;;;30.10;38.90;;;;;;5011180;28;20580;-59
2022/06/21 11:20:15;;;;;;;1.60;1.50;;;30.10;38.90;;;;;;5011640;28;20033;-58
2022/06/21 11:22:52;;;;;;;1.83;1.50;;;30.10;39.00;;;;;;5009740;28;20057;-58
2022/06/21 11:25:47;;;;;;;1.70;1.60;;;30.10;39.10;;;;;;5009863;28;20841;-58
2022/06/21 11:28:22;;;;;;;2.05;1.58;;;30.10;39.10;;;;;;5012102;28;20033;-58
2022/06/21 11:31:07;;;;;;;1.52;1.40;;;30.10;39.20;;;;;;5003974;28;20025;-57
2022/06/21 11:33:51;;;;;;;1.58;1.48;;;30.10;39.30;;;;;;5008029;28;20141;-58
2022/06/21 11:36:37;;;;;;;1.50;1.40;;;30.10;39.30;;;;;;5007561;28;20034;-59
2022/06/21 11:39:34;;;;;;;1.25;1.20;;;30.10;39.60;;;;;;5010690;28;20033;-59
2022/06/21 11:42:14;;;;;;;1.63;1.50;;;30.10;39.60;;;;;;5005966;28;20035;-58
2022/06/21 11:44:40;;;;;;;;;;;30.10;39.50;;;;;;5012872;28;20499;-58
2022/06/21 11:47:11;;;;;;;1.25;1.23;;;30.10;39.50;;;;;;5012291;28;20367;-59
2022/06/21 11:49:48;;;;;;;2.22;1.77;;;30.10;39.60;;;;;;5027694;28;20100;-58
2022/06/21 11:52:41;;;;;;;2.10;1.90;;;30.10;39.60;;;;;;5007146;28;20057;-59
2022/06/21 11:55:18;;;;;;;1.73;1.60;;;30.10;39.70;;;;;;5010574;28;20632;-59
2022/06/21 11:57:55;;;;;;;1.60;1.50;;;30.10;39.80;;;;;;5004282;28;20061;-58
2022/06/21 12:00:25;;;;;;;1.70;1.60;;;30.10;39.80;;;;;;4998924;28;20033;-58
2022/06/21 12:02:59;;;;;;;1.70;1.60;;;30.10;39.80;;;;;;4996993;28;20061;-58
2022/06/21 12:05:46;;;;;;;1.98;1.52;;;30.10;40.00;;;;;;5003112;28;20747;-57
2022/06/21 12:08:22;;;;;;;1.60;1.50;;;30.10;40.10;;;;;;5001296;28;20030;-58
2022/06/21 12:11:16;;;;;;;1.50;1.40;;;30.10;40.30;;;;;;5002526;28;20033;-58
2022/06/21 12:13:44;;;;;;;3.10;1.88;;;30.10;40.20;;;;;;5004999;28;20489;-58
2022/06/21 12:16:28;;;;;;;1.83;1.73;;;30.10;40.40;;;;;;4999334;28;20057;-56
2022/06/21 12:18:59;;;;;;;2.03;1.88;;;30.10;40.50;;;;;;5002063;28;20036;-57
2022/06/21 12:21:29;;;;;;;2.00;1.90;;;30.10;40.50;;;;;;4999144;28;20048;-59
2022/06/21 12:23:58;;;;;;;1.52;1.42;;;30.10;40.60;;;;;;5009956;28;20045;-58
2022/06/21 12:26:29;;;;;;;1.35;1.35;;;30.10;40.70;;;;;;4999905;28;20025;-58
2022/06/21 12:28:57;;;;;;;1.92;1.40;;;30.10;40.70;;;;;;5003726;28;20033;-58
2022/06/21 12:31:55;;;;;;;1.75;1.65;;;30.20;40.90;;;;;;5006518;28;20079;-59
2022/06/21 12:34:51;;;;;;;4.40;1.85;;;30.20;40.90;;;;;;5009397;28;20072;-59
2022/06/21 12:37:24;;;;;;;1.63;1.52;;;30.30;41.00;;;;;;5012816;28;20152;-59
2022/06/21 12:40:02;;;;;;;2.03;1.65;;;30.30;41.00;;;;;;5005734;28;20032;-58
2022/06/21 12:42:54;;;;;;;2.80;2.10;;;30.40;41.10;;;;;;5009283;28;20037;-59
2022/06/21 12:46:03;;;;;;;2.60;1.70;;;30.40;41.30;;;;;;5009486;28;20497;-59
2022/06/21 12:48:58;;;;;;;2.30;2.10;;;30.50;41.40;;;;;;5015150;28;20378;-58
2022/06/21 12:51:36;;;;;;;1.55;1.42;;;30.50;41.40;;;;;;4996152;28;20336;-59
2022/06/21 12:54:20;;;;;;;1.77;1.67;;;30.50;41.30;;;;;;4996655;28;20032;-58
2022/06/21 12:57:16;;;;;;;1.45;1.35;;;30.50;41.30;;;;;;4993910;28;20714;-59
2022/06/21 13:00:09;;;;;;;2.17;2.00;;;30.50;41.50;;;;;;4999908;28;20033;-59
2022/06/21 13:03:05;;;;;;;1.55;1.50;;;30.50;41.40;;;;;;4995726;28;20061;-58
2022/06/21 13:05:57;;;;;;;2.10;2.00;;;30.50;41.40;;;;;;5005624;28;20120;-58
2022/06/21 13:08:41;;;;;;;3.30;2.00;;;30.50;41.50;;;;;;5004347;28;20401;-58
2022/06/21 13:11:42;;;;;;;3.08;1.90;;;30.50;41.50;;;;;;5003974;28;20033;-56
2022/06/21 13:14:17;;;;;;;2.13;2.03;;;30.50;41.80;;;;;;5009018;28;20133;-57
2022/06/21 13:17:01;;;;;;;2.25;2.05;;;30.50;41.90;;;;;;5002357;28;20037;-58
2022/06/21 13:19:30;;;;;;;1.88;1.77;;;30.50;42.10;;;;;;5002201;28;20044;-57
2022/06/21 13:22:37;;;;;;;2.10;1.83;;;30.50;42.20;;;;;;4999497;28;20164;-58
2022/06/21 13:25:09;;;;;;;2.55;2.35;;;30.50;42.50;;;;;;4997388;28;20524;-58
2022/06/21 13:27:46;;;;;;;2.38;2.17;;;30.50;42.50;;;;;;5009543;28;20064;-58
2022/06/21 13:30:22;;;;;;;3.40;2.40;;;30.40;42.80;;;;;;5003573;28;20401;-58
2022/06/21 13:33:09;;;;;;;10.95;3.60;;;30.40;46.10;;;;;;5001807;28;20095;-58
2022/06/21 13:35:42;;;;;;;4.60;3.40;;;30.20;49.20;;;;;;5003362;28;20026;-59
2022/06/21 13:38:49;;;;;;;7.10;3.58;;;29.80;49.70;;;;;;5004048;28;20025;-58
2022/06/21 13:42:37;;;;;;;4.63;3.30;;;29.40;52.80;;;;;;5002480;28;20087;-58
2022/06/21 13:44:09;;;;;;;3.17;2.55;;;29.10;52.90;;;;;;4998898;28;20971;-59
2022/06/21 13:46:40;;;;;;;3.60;2.90;;;28.70;53.90;;;;;;5004317;28;20115;-60
2022/06/21 13:49:30;;;;;;;3.00;2.70;;;28.40;54.60;;;;;;4998882;28;20532;-57
2022/06/21 13:52:08;;;;;;;5.10;2.47;;;28.10;56.30;;;;;;5006611;28;20042;-58
2022/06/21 13:54:49;;;;;;;3.33;2.72;;;27.90;56.40;;;;;;5004059;28;20532;-58
2022/06/21 13:57:51;;;;;;;3.38;2.55;;;27.70;57.50;;;;;;4999931;28;20034;-58
2022/06/21 14:00:22;;;;;;;3.70;2.50;;;27.60;58.50;;;;;;5006103;28;20026;-58
2022/06/21 14:03:03;;;;;;;2.97;2.40;;;27.40;57.90;;;;;;5007327;28;20132;-58